Impacts METAR Board
IDs:

KEWR - Newark Intl, NJ, US

Updated at: 2200 UTC 02 Oct 2022
Potential Impact None Slight Moderate High
Time 02/10Z 02/11Z 02/12Z 02/13Z 02/14Z 02/15Z 02/16Z 02/17Z 02/18Z 02/19Z 02/20Z 02/21Z 02/22Z
Temp59 59 60 59 58 56 54 53 54 54 52 54 54
Dewpt42 42 46 48 49 50 51 50 50 48 47 42 39
Altim29.97 29.99 30.00 30.02 30.04 30.06 30.09 30.10 30.10 30.10 30.11 30.11 30.12
VIS10 10 10 10 10 7 5 5 10 8 6 10 10
CIG32 36 35 31 27 27 26 27 28 32 35 55 48
CoverOVCOVCOVCOVCOVCOVCOVCOVCOVCOVCOVCOVCOVC
FltCatVFRVFRVFRVFRMVFRMVFRMVFRMVFRMVFRVFRVFRVFRVFR
WX---------RA-RA-RA BRRA BR-RA-RA-RA----
WDir30404040405030402030304030
WSpd17 13 19 15 16 15 12 17 15 20 17 17 19
WGst27 22 26 26 28 26 19 27 22 27 25 25 26
Raw hourly METARs
KEWR 020951Z 03017G27KT 10SM BKN032 OVC048 15/06 A2997 RMK AO2 PK WND 05029/0925 RAE14 SLP147 P0000 T01500056 $
KEWR 021051Z 04013G22KT 10SM OVC036 15/06 A2999 RMK AO2 SLP155 T01500056 $
KEWR 021151Z 04019G26KT 10SM BKN035 OVC150 16/08 A3000 RMK AO2 PK WND 04026/1151 SLP159 60000 70027 T01560078 10156 20139 53011 $
KEWR 021251Z 04015G26KT 10SM BKN031 BKN048 OVC150 15/09 A3002 RMK AO2 PK WND 04028/1201 SLP165 T01500089 $
KEWR 021351Z 04016G28KT 10SM -RA BKN027 BKN040 OVC130 14/09 A3004 RMK AO2 PK WND 03031/1316 RAB02E15B40 SLP172 P0000 T01440094 $
KEWR 021451Z 05015G26KT 7SM -RA BKN027 OVC045 13/10 A3006 RMK AO2 PK WND 04029/1413 SLP178 P0003 60003 T01330100 52019 $
KEWR 021605Z 03012G19KT 5SM R04R/4000VP6000FT -RA BR BKN026 BKN035 OVC050 12/11 A3009 RMK AO2 P0004 T01220106 $
KEWR 021651Z 04017G27KT 5SM RA BR BKN027 BKN035 OVC060 12/10 A3010 RMK AO2 PK WND 04027/1646 SLP192 P0026 T01170100 $
KEWR 021751Z 02015G22KT 10SM -RA BKN028 OVC037 12/10 A3010 RMK AO2 SLP193 P0004 60049 T01220100 10156 20117 51015 $
KEWR 021851Z 03020G27KT 8SM -RA BKN032 BKN038 OVC055 12/09 A3010 RMK AO2 PK WND 03027/1851 SLP193 P0000 T01220089 $
KEWR 021951Z 03017G25KT 6SM -RA FEW028 BKN035 OVC055 11/08 A3011 RMK AO2 PK WND 03027/1857 SLP196 P0000 T01110083 $
KEWR 022051Z 04017G25KT 10SM SCT033 OVC055 12/06 A3011 RMK AO2 RAE24 SLP195 P0001 60001 T01220056 50002 $
KEWR 022151Z 03019G26KT 10SM FEW033 BKN048 OVC060 12/04 A3012 RMK AO2 PK WND 02027/2132 SLP200 T01220039 $



Page loaded:  22:45 UTC  |   03:45 PM Pacific  |   04:45 PM Mountain  |   05:45 PM Central  |   06:45 PM Eastern

 

ADVISORIES

FORECASTS

FORECASTS

OBSERVATIONS

USER TOOLS

ABOUT US